Terminal Aerodrome Forecast
Issued by NWS

Home | Current Version | Previous Version | Text Only | Print | Product List | Glossary Off
Versions: 1 2 3 4 5 6 7 8 9 10 11 12 13 14 15

000
FTUS43 KIWX 272325
TAFSBN
TAF
KSBN 272325Z 2800/2824 19005KT P6SM BKN200
     FM280700 VRB03KT 4SM BR SCT010 BKN150
      TEMPO 2809/2812 1 1/2SM BR BKN010
     FM281300 VRB03KT P6SM SCT020 BKN150
     FM281900 30005KT P6SM SCT110=

USA.gov is the U.S. government's official web portal to all federal, state and local government web resources and services.